Time;durP1;ratioP1;P1;durP2;ratioP2;P2;SDS_P1;SDS_P2;PMS_P1;PMS_P2;Temp;Humidity;BMP_temperature;BMP_pressure;BME280_temperature;BME280_humidity;BME280_pressure;Samples;Min_cycle;Max_cycle;Signal;HPM_P1;HPM_P2
2022/03/24 00:01:54;;;;;;;20.75;12.10;;;7.90;80.00;;;;;;5034845;28;20456;-71
2022/03/24 00:04:20;;;;;;;20.02;12.75;;;7.90;79.70;;;;;;5034771;28;20460;-71
2022/03/24 00:06:46;;;;;;;20.55;12.48;;;8.20;79.10;;;;;;5034693;28;20083;-71
2022/03/24 00:09:11;;;;;;;18.15;11.70;;;8.00;80.10;;;;;;5034605;28;20034;-71
2022/03/24 00:11:38;;;;;;;20.42;11.60;;;7.60;81.00;;;;;;5034640;28;20045;-71
2022/03/24 00:14:04;;;;;;;22.90;12.50;;;7.70;81.10;;;;;;5034771;28;20029;-70
2022/03/24 00:16:30;;;;;;;22.02;12.20;;;7.70;80.50;;;;;;5034443;28;20034;-69
2022/03/24 00:18:56;;;;;;;20.15;11.48;;;8.00;79.40;;;;;;5034393;28;20087;-71
2022/03/24 00:21:24;;;;;;;19.10;11.90;;;8.10;78.90;;;;;;5034466;28;20033;-71
2022/03/24 00:23:50;;;;;;;18.00;11.50;;;8.40;78.00;;;;;;5034144;28;20073;-70
2022/03/24 00:26:16;;;;;;;21.80;12.48;;;8.10;82.60;;;;;;5034379;28;20159;-71
2022/03/24 00:28:42;;;;;;;19.67;11.98;;;8.10;78.80;;;;;;5034019;28;20041;-71
2022/03/24 00:31:09;;;;;;;18.95;12.13;;;7.90;79.40;;;;;;5033997;28;20045;-71
2022/03/24 00:33:36;;;;;;;22.98;12.77;;;7.90;79.20;;;;;;5033848;28;20044;-71
2022/03/24 00:36:03;;;;;;;24.15;13.23;;;8.00;79.30;;;;;;5034171;28;20025;-71
2022/03/24 00:38:29;;;;;;;21.23;13.25;;;8.10;79.00;;;;;;5033948;28;20412;-71
2022/03/24 00:40:56;;;;;;;17.05;11.73;;;8.10;78.90;;;;;;5034233;28;20033;-71
2022/03/24 00:43:22;;;;;;;19.77;12.35;;;8.30;78.30;;;;;;5033948;28;20049;-70
2022/03/24 00:45:51;;;;;;;22.35;11.70;;;;;;;;;;5033048;28;20064;-70
2022/03/24 00:48:17;;;;;;;21.52;12.82;;;8.30;77.30;;;;;;5033774;28;20518;-71
2022/03/24 00:50:44;;;;;;;24.95;12.95;;;8.40;77.70;;;;;;5033774;28;20128;-70
2022/03/24 00:53:11;;;;;;;22.67;11.60;;;8.00;78.80;;;;;;5033821;28;20049;-71
2022/03/24 00:55:39;;;;;;;19.73;12.60;;;7.80;79.50;;;;;;5033736;28;20033;-70
2022/03/24 00:58:05;;;;;;;21.15;11.35;;;7.80;79.60;;;;;;5033847;28;20432;-70
2022/03/24 01:00:32;;;;;;;18.75;11.02;;;7.90;79.30;;;;;;5033737;28;20029;-71
2022/03/24 01:02:58;;;;;;;19.27;12.55;;;7.80;79.10;;;;;;5015849;28;20104;-70
2022/03/24 01:05:27;;;;;;;20.10;11.90;;;7.80;79.10;;;;;;5033410;28;20040;-71
2022/03/24 01:07:54;;;;;;;24.80;13.15;;;7.90;78.80;;;;;;5033225;28;20041;-71
2022/03/24 01:10:21;;;;;;;18.20;11.50;;;7.90;78.60;;;;;;5033253;28;20122;-70
2022/03/24 01:12:48;;;;;;;20.42;11.90;;;7.90;78.60;;;;;;5033398;28;20049;-71
2022/03/24 01:15:20;;;;;;;25.33;11.93;;;7.80;79.00;;;;;;5033451;28;20132;-71
2022/03/24 01:17:47;;;;;;;18.70;11.10;;;7.80;79.20;;;;;;5015409;28;20409;-70
2022/03/24 01:20:14;;;;;;;22.48;11.15;;;7.80;79.10;;;;;;5033298;28;20142;-71
2022/03/24 01:22:40;;;;;;;20.70;11.80;;;7.80;79.30;;;;;;5033080;28;20042;-70
2022/03/24 01:25:07;;;;;;;20.38;11.32;;;7.70;79.40;;;;;;5033478;28;20057;-71
2022/03/24 01:27:34;;;;;;;16.75;11.02;;;7.80;79.30;;;;;;5035739;28;20043;-71
2022/03/24 01:30:00;;;;;;;20.45;11.48;;;7.80;79.00;;;;;;5033009;28;20045;-70
2022/03/24 01:32:27;;;;;;;18.55;11.13;;;7.90;78.90;;;;;;5033215;28;20026;-71
2022/03/24 01:34:55;;;;;;;22.52;12.18;;;8.00;78.50;;;;;;5033331;28;20049;-71
2022/03/24 01:37:23;;;;;;;17.85;11.50;;;8.00;78.50;;;;;;5033444;28;20385;-71
2022/03/24 01:39:53;;;;;;;17.20;10.93;;;7.90;78.50;;;;;;5033433;28;20041;-71
2022/03/24 01:42:20;;;;;;;16.25;10.32;;;8.00;78.50;;;;;;5033161;28;20033;-70
2022/03/24 01:44:46;;;;;;;21.98;11.07;;;8.00;78.40;;;;;;5033350;28;20053;-70
2022/03/24 01:47:13;;;;;;;18.45;10.98;;;8.00;78.30;;;;;;5029376;28;20175;-70
2022/03/24 01:49:41;;;;;;;27.80;12.57;;;8.00;78.50;;;;;;5030634;28;20056;-70
2022/03/24 01:52:09;;;;;;;19.63;11.73;;;8.00;78.40;;;;;;5031188;28;20057;-70
2022/03/24 01:54:43;;;;;;;25.75;12.00;;;7.90;78.70;;;;;;5032117;28;20049;-71
2022/03/24 01:57:13;;;;;;;19.63;12.02;;;7.90;78.60;;;;;;5035744;28;20124;-70
2022/03/24 01:59:40;;;;;;;22.38;11.00;;;8.00;78.40;;;;;;5039351;28;20071;-70
2022/03/24 02:02:07;;;;;;;18.65;11.77;;;7.80;79.00;;;;;;5039500;28;20536;-70
2022/03/24 02:04:37;;;;;;;26.33;12.52;;;7.50;79.60;;;;;;5039446;28;20127;-70
2022/03/24 02:07:04;;;;;;;24.80;12.25;;;7.70;79.50;;;;;;5039592;28;20507;-70
2022/03/24 02:09:31;;;;;;;24.10;12.95;;;7.60;79.70;;;;;;5039534;28;20451;-70
2022/03/24 02:11:57;;;;;;;18.67;11.40;;;7.30;79.70;;;;;;5021522;28;20404;-70
2022/03/24 02:14:23;;;;;;;21.85;11.50;;;7.30;80.30;;;;;;5021723;28;20450;-70
2022/03/24 02:16:50;;;;;;;24.73;11.80;;;7.40;80.60;;;;;;5039450;28;20132;-70
2022/03/24 02:19:18;;;;;;;19.40;11.85;;;7.40;80.50;;;;;;5039542;28;20032;-71
2022/03/24 02:21:46;;;;;;;21.92;12.48;;;7.50;80.10;;;;;;5039404;28;20047;-70
2022/03/24 02:24:13;;;;;;;22.00;12.82;;;7.60;79.50;;;;;;5039305;28;20504;-70
2022/03/24 02:26:42;;;;;;;23.05;12.05;;;7.80;79.20;;;;;;5039173;28;20068;-70
2022/03/24 02:29:15;;;;;;;21.88;13.05;;;7.90;78.60;;;;;;5039193;28;20179;-70
2022/03/24 02:31:43;;;;;;;22.10;13.25;;;8.00;78.30;;;;;;5039016;28;20041;-71
2022/03/24 02:37:07;;;;;;;23.58;12.73;;;8.30;77.30;;;;;;5039028;28;20121;-70
2022/03/24 02:39:40;;;;;;;;;;;8.30;77.10;;;;;;5039589;28;20504;-71
2022/03/24 02:42:08;;;;;;;22.95;12.00;;;7.90;78.50;;;;;;5039147;28;20379;-70
2022/03/24 02:44:34;;;;;;;23.00;12.93;;;7.40;80.30;;;;;;5038898;28;20099;-70
2022/03/24 02:47:03;;;;;;;24.23;13.10;;;7.50;80.00;;;;;;5039279;28;20128;-70
2022/03/24 02:49:30;;;;;;;20.67;12.02;;;7.60;79.60;;;;;;5038961;28;20490;-71
2022/03/24 02:51:59;;;;;;;19.08;12.60;;;7.40;80.20;;;;;;5038965;28;20569;-71
2022/03/24 02:54:26;;;;;;;30.75;12.75;;;7.30;80.90;;;;;;5039002;28;20021;-71
2022/03/24 02:56:52;;;;;;;20.58;12.43;;;7.40;80.80;;;;;;5038897;28;20099;-71
2022/03/24 02:59:18;;;;;;;21.33;12.75;;;7.60;80.00;;;;;;5039068;28;20112;-71
2022/03/24 03:01:52;;;;;;;21.77;12.85;;;7.50;80.60;;;;;;5038993;28;20041;-71
2022/03/24 03:04:19;;;;;;;23.75;12.75;;;7.40;80.90;;;;;;5038705;28;20049;-70
2022/03/24 03:06:45;;;;;;;21.88;12.52;;;7.40;80.50;;;;;;5038875;28;20497;-71
2022/03/24 03:09:15;;;;;;;19.70;12.77;;;7.50;80.20;;;;;;5035845;28;20072;-70
2022/03/24 03:11:43;;;;;;;24.40;12.02;;;7.50;80.40;;;;;;5035655;28;20409;-70
2022/03/24 03:14:11;;;;;;;26.02;14.02;;;7.50;80.60;;;;;;5035328;28;20033;-70
2022/03/24 03:16:37;;;;;;;21.55;12.93;;;7.80;80.20;;;;;;5035578;28;20044;-71
2022/03/24 03:19:03;;;;;;;26.90;13.82;;;7.90;79.20;;;;;;5035925;28;20041;-70
2022/03/24 03:21:29;;;;;;;21.05;11.82;;;7.90;79.30;;;;;;5035345;28;20048;-71
2022/03/24 03:23:55;;;;;;;24.08;13.13;;;7.90;79.40;;;;;;5035341;28;20080;-71
2022/03/24 03:26:22;;;;;;;22.33;13.32;;;8.00;80.10;;;;;;5035361;28;20517;-71
2022/03/24 03:28:48;;;;;;;24.13;12.55;;;7.50;80.80;;;;;;5035716;28;20045;-70
2022/03/24 03:31:14;;;;;;;27.23;13.07;;;7.00;82.00;;;;;;5035287;28;20509;-70
2022/03/24 03:33:40;;;;;;;24.13;13.10;;;7.20;81.90;;;;;;5035742;28;20080;-70
2022/03/24 03:36:06;;;;;;;25.77;13.00;;;7.60;80.70;;;;;;5035455;28;20029;-70
2022/03/24 03:38:33;;;;;;;24.58;13.48;;;7.90;79.80;;;;;;5035114;28;20090;-70
2022/03/24 03:41:02;;;;;;;23.15;12.75;;;7.70;80.30;;;;;;5032957;28;20037;-70
2022/03/24 03:43:29;;;;;;;22.17;12.45;;;7.70;80.60;;;;;;5033001;28;20048;-71
2022/03/24 03:45:55;;;;;;;23.73;12.93;;;7.70;80.80;;;;;;5033810;28;20045;-71
2022/03/24 03:48:21;;;;;;;19.67;11.57;;;7.70;80.60;;;;;;5034339;28;20033;-70
2022/03/24 03:50:48;;;;;;;21.08;12.32;;;7.70;79.90;;;;;;5034927;28;20049;-70
2022/03/24 03:53:14;;;;;;;18.35;11.73;;;7.90;80.40;;;;;;5035129;28;20144;-70
2022/03/24 03:55:40;;;;;;;19.23;12.27;;;7.90;80.20;;;;;;5034984;28;20041;-69
2022/03/24 03:58:07;;;;;;;21.05;12.65;;;7.90;80.50;;;;;;5034878;28;20377;-70
2022/03/24 04:00:52;;;;;;;18.60;11.95;;;7.80;80.90;;;;;;5034578;28;20524;-71
2022/03/24 04:03:21;;;;;;;22.92;12.18;;;7.60;81.40;;;;;;5034692;28;20057;-70
2022/03/24 04:05:47;;;;;;;22.77;13.40;;;7.40;82.00;;;;;;5034819;28;20040;-70
2022/03/24 04:08:13;;;;;;;25.35;13.45;;;7.50;82.40;;;;;;5037231;28;20041;-71
2022/03/24 04:10:39;;;;;;;24.10;12.93;;;7.60;82.20;;;;;;5034738;28;20412;-69
2022/03/24 04:13:06;;;;;;;21.67;13.35;;;7.50;82.80;;;;;;5034567;28;20085;-70
2022/03/24 04:15:33;;;;;;;22.33;12.95;;;7.30;83.70;;;;;;5034461;28;20532;-70
2022/03/24 04:17:59;;;;;;;30.20;13.75;;;7.30;83.80;;;;;;5034378;28;20045;-71
2022/03/24 04:20:26;;;;;;;25.13;13.20;;;7.50;83.00;;;;;;5034228;28;20464;-70
2022/03/24 04:22:52;;;;;;;24.85;13.68;;;7.50;82.90;;;;;;5034217;28;20071;-70
2022/03/24 04:25:20;;;;;;;26.77;13.60;;;7.50;82.50;;;;;;5034152;28;20116;-70
2022/03/24 04:27:46;;;;;;;25.52;13.30;;;7.50;82.40;;;;;;5034093;28;20041;-70
2022/03/24 04:30:12;;;;;;;25.15;13.00;;;7.60;82.40;;;;;;5034113;28;20037;-70
2022/03/24 04:32:38;;;;;;;24.23;12.90;;;7.80;82.20;;;;;;5034123;28;20041;-70
2022/03/24 04:35:06;;;;;;;28.65;12.63;;;7.90;82.10;;;;;;5034270;28;20079;-70
2022/03/24 04:37:32;;;;;;;23.77;13.88;;;7.80;82.70;;;;;;5034187;28;20045;-70
2022/03/24 04:39:58;;;;;;;24.10;13.77;;;7.80;82.80;;;;;;5033921;28;20037;-70
2022/03/24 04:42:24;;;;;;;28.23;14.27;;;7.90;82.50;;;;;;5033765;28;20044;-70
2022/03/24 04:44:50;;;;;;;20.50;13.68;;;7.90;82.50;;;;;;5033935;28;20068;-70
2022/03/24 04:47:16;;;;;;;19.52;12.80;;;7.90;82.60;;;;;;5033968;28;20065;-70
2022/03/24 04:49:45;;;;;;;25.95;13.07;;;7.80;82.30;;;;;;5049162;28;20646;-70
2022/03/24 04:52:11;;;;;;;25.85;14.07;;;;;;;;;;5053931;28;20073;-70
2022/03/24 04:54:37;;;;;;;24.63;13.25;;;7.70;82.70;;;;;;5053719;28;20045;-70
2022/03/24 04:57:03;;;;;;;21.30;12.38;;;7.50;83.60;;;;;;5053809;28;20071;-70
2022/03/24 04:59:29;;;;;;;25.85;12.77;;;7.40;84.00;;;;;;5053594;28;20123;-70
2022/03/24 05:01:56;;;;;;;29.00;14.05;;;7.10;85.70;;;;;;5053538;28;20045;-70
2022/03/24 05:04:23;;;;;;;25.30;14.07;;;7.30;85.10;;;;;;5053458;28;20048;-70
2022/03/24 05:06:50;;;;;;;22.92;12.77;;;7.20;85.70;;;;;;5053380;28;20037;-70
2022/03/24 05:09:16;;;;;;;22.02;13.95;;;7.10;85.70;;;;;;5053362;28;20048;-71
2022/03/24 05:11:42;;;;;;;22.98;13.57;;;7.20;85.70;;;;;;5053465;28;20029;-70
2022/03/24 05:14:08;;;;;;;30.10;13.70;;;7.10;85.90;;;;;;5053407;28;20095;-70
2022/03/24 05:16:34;;;;;;;23.85;14.20;;;7.00;86.10;;;;;;5053329;28;20090;-70
2022/03/24 05:19:00;;;;;;;24.67;14.10;;;6.90;86.40;;;;;;5041544;28;20444;-70
2022/03/24 05:21:26;;;;;;;25.38;14.48;;;6.90;86.50;;;;;;5033376;28;20045;-70
2022/03/24 05:23:52;;;;;;;23.73;13.80;;;7.10;86.30;;;;;;5033244;28;20505;-70
2022/03/24 05:26:20;;;;;;;23.40;13.52;;;7.20;86.60;;;;;;5033352;28;20045;-70
2022/03/24 05:28:47;;;;;;;21.23;12.80;;;7.20;86.60;;;;;;5033176;28;20135;-70
2022/03/24 05:31:13;;;;;;;23.00;13.70;;;7.30;86.00;;;;;;5032542;28;20041;-69
2022/03/24 05:33:39;;;;;;;24.60;13.65;;;7.20;86.00;;;;;;5032817;28;20091;-70
2022/03/24 05:36:06;;;;;;;24.55;13.27;;;7.30;87.50;;;;;;5032835;28;20120;-70
2022/03/24 05:38:31;;;;;;;26.45;13.80;;;7.40;85.00;;;;;;5033205;28;20516;-70
2022/03/24 05:40:57;;;;;;;24.77;14.20;;;7.30;86.50;;;;;;5033220;28;20048;-69
2022/03/24 05:43:24;;;;;;;26.92;14.43;;;7.20;87.50;;;;;;5033163;28;20045;-70
2022/03/24 05:45:49;;;;;;;25.98;14.48;;;7.20;87.70;;;;;;5033178;28;20045;-70
2022/03/24 05:48:15;;;;;;;22.27;14.05;;;7.20;87.90;;;;;;5032918;28;20581;-70
2022/03/24 05:50:41;;;;;;;25.40;13.30;;;7.10;88.70;;;;;;5032744;28;20116;-70
2022/03/24 05:53:07;;;;;;;22.95;14.20;;;7.20;88.40;;;;;;5028655;28;20049;-70
2022/03/24 05:55:36;;;;;;;22.00;12.55;;;7.40;88.50;;;;;;5030844;28;20401;-70
2022/03/24 05:58:02;;;;;;;27.38;14.05;;;7.40;86.70;;;;;;5031246;28;20084;-70
2022/03/24 06:00:28;;;;;;;22.38;13.43;;;7.30;87.50;;;;;;5032201;28;20099;-70
2022/03/24 06:02:54;;;;;;;22.67;13.82;;;6.80;88.70;;;;;;5032883;28;20045;-70
2022/03/24 06:05:22;;;;;;;25.30;14.52;;;6.60;89.90;;;;;;5032783;28;20110;-70
2022/03/24 06:07:48;;;;;;;25.38;14.50;;;6.60;90.10;;;;;;5032859;28;20049;-70
2022/03/24 06:10:14;;;;;;;28.35;14.00;;;6.60;90.40;;;;;;5035824;28;20098;-70
2022/03/24 06:12:40;;;;;;;24.80;14.27;;;6.60;90.50;;;;;;5032952;28;20030;-70
2022/03/24 06:15:07;;;;;;;26.45;14.60;;;6.60;90.60;;;;;;5032858;28;20041;-70
2022/03/24 06:17:33;;;;;;;23.00;13.43;;;6.90;90.30;;;;;;5032998;28;20409;-70
2022/03/24 06:20:01;;;;;;;26.15;14.80;;;6.90;90.50;;;;;;5032739;28;20071;-70
2022/03/24 06:22:28;;;;;;;28.75;13.85;;;7.00;90.40;;;;;;5032802;28;20045;-70
2022/03/24 06:24:54;;;;;;;25.25;13.85;;;7.20;90.40;;;;;;5032854;28;20938;-71
2022/03/24 06:27:20;;;;;;;25.25;14.07;;;7.30;90.30;;;;;;5032870;28;20037;-71
2022/03/24 06:29:47;;;;;;;26.42;13.88;;;7.40;90.10;;;;;;5032666;28;20493;-70
2022/03/24 06:32:13;;;;;;;24.80;14.43;;;7.40;90.20;;;;;;5031262;28;20034;-70
2022/03/24 06:34:39;;;;;;;27.50;16.13;;;7.50;90.10;;;;;;5032234;28;20053;-70
2022/03/24 06:37:05;;;;;;;28.17;14.70;;;7.70;89.90;;;;;;5031811;28;20041;-70
2022/03/24 06:39:31;;;;;;;26.95;14.93;;;7.80;88.30;;;;;;5032413;28;20041;-71
2022/03/24 06:41:57;;;;;;;29.23;15.32;;;7.90;88.10;;;;;;5047103;28;20048;-70
2022/03/24 06:44:23;;;;;;;26.35;15.35;;;8.10;87.70;;;;;;5054144;28;20419;-70
2022/03/24 06:46:48;;;;;;;26.67;15.07;;;8.20;88.00;;;;;;5056201;28;20033;-70
2022/03/24 06:49:15;;;;;;;28.20;15.65;;;8.40;88.00;;;;;;5056053;28;20535;-69
2022/03/24 06:51:41;;;;;;;26.55;14.52;;;8.70;88.20;;;;;;5049456;28;20440;-70
2022/03/24 06:54:07;;;;;;;28.27;15.48;;;8.80;88.50;;;;;;5040584;28;20137;-71
2022/03/24 06:56:33;;;;;;;26.60;14.70;;;8.70;88.60;;;;;;5035674;28;20037;-72
2022/03/24 06:58:59;;;;;;;24.77;14.38;;;8.90;88.90;;;;;;5035988;28;20041;-71
2022/03/24 07:01:25;;;;;;;23.60;14.25;;;9.10;88.60;;;;;;5035847;28;20044;-72
2022/03/24 07:03:51;;;;;;;25.70;14.30;;;9.30;88.40;;;;;;5023336;28;20485;-71
2022/03/24 07:06:17;;;;;;;27.02;15.40;;;9.50;88.50;;;;;;5033255;28;20088;-72
2022/03/24 07:08:43;;;;;;;26.42;14.48;;;9.90;88.30;;;;;;5015384;28;20068;-73
2022/03/24 07:11:09;;;;;;;26.17;15.55;;;10.40;88.20;;;;;;5031377;28;20080;-71
2022/03/24 07:13:35;;;;;;;23.42;13.15;;;11.00;88.60;;;;;;5033567;28;20048;-72
2022/03/24 07:16:01;;;;;;;26.95;14.73;;;11.30;90.60;;;;;;5033734;28;20511;-73
2022/03/24 07:18:26;;;;;;;24.65;13.82;;;11.20;85.80;;;;;;5032603;28;20084;-72
2022/03/24 07:20:52;;;;;;;28.55;13.95;;;10.90;85.30;;;;;;5053301;28;20380;-73
2022/03/24 07:23:18;;;;;;;33.67;15.48;;;11.20;88.50;;;;;;5025074;28;20056;-72
2022/03/24 07:25:44;;;;;;;23.85;14.93;;;11.60;89.20;;;;;;5022817;28;20136;-71
2022/03/24 07:28:14;;;;;;;25.77;14.43;;;11.30;85.80;;;;;;5033056;28;20120;-75
2022/03/24 07:30:40;;;;;;;32.97;15.27;;;11.40;88.40;;;;;;5032857;28;20045;-73
2022/03/24 07:33:08;;;;;;;27.23;14.15;;;11.30;89.10;;;;;;5032602;28;20523;-71
2022/03/24 07:35:34;;;;;;;28.42;15.60;;;11.70;83.40;;;;;;5032705;28;20037;-71
2022/03/24 07:38:00;;;;;;;18.50;12.00;;;12.40;83.30;;;;;;5033552;28;20045;-76
2022/03/24 07:40:26;;;;;;;22.35;14.48;;;12.90;83.00;;;;;;5032632;28;20064;-76
2022/03/24 07:42:54;;;;;;;30.05;16.38;;;13.10;86.80;;;;;;5033214;28;20045;-74
2022/03/24 07:45:22;;;;;;;24.30;15.65;;;13.30;85.60;;;;;;5032982;28;20049;-74
2022/03/24 07:48:07;;;;;;;27.23;15.25;;;13.30;85.00;;;;;;5032420;28;20064;-71
2022/03/24 07:50:34;;;;;;;24.50;13.27;;;13.50;82.60;;;;;;5032593;28;20128;-71
2022/03/24 07:53:15;;;;;;;23.30;13.70;;;13.70;86.20;;;;;;5033240;28;20135;-70
2022/03/24 07:55:43;;;;;;;16.73;11.77;;;14.00;88.00;;;;;;5030994;28;20038;-76
2022/03/24 07:58:11;;;;;;;18.58;11.13;;;14.20;86.30;;;;;;5032519;28;20045;-71
2022/03/24 08:00:37;;;;;;;18.33;11.48;;;14.10;87.10;;;;;;5031861;28;20108;-76
2022/03/24 08:03:06;;;;;;;20.38;12.48;;;14.50;87.50;;;;;;5032720;28;20107;-71
2022/03/24 08:05:32;;;;;;;18.92;12.23;;;14.50;85.10;;;;;;5033163;28;20061;-76
2022/03/24 08:07:58;;;;;;;21.27;12.32;;;14.10;83.10;;;;;;5032172;28;20466;-74
2022/03/24 08:10:24;;;;;;;18.45;11.25;;;14.30;83.30;;;;;;5034500;28;20128;-71
2022/03/24 08:12:50;;;;;;;21.90;12.05;;;14.80;85.20;;;;;;5048344;28;20033;-73
2022/03/24 08:15:16;;;;;;;25.83;14.55;;;15.50;91.70;;;;;;5031931;28;20408;-73
2022/03/24 08:17:41;;;;;;;23.98;15.57;;;15.50;81.30;;;;;;5031451;28;20040;-72
2022/03/24 08:20:08;;;;;;;19.13;11.75;;;15.60;80.90;;;;;;5031284;28;20053;-75
2022/03/24 08:22:34;;;;;;;23.27;12.52;;;15.90;85.00;;;;;;5039095;28;20044;-71
2022/03/24 08:25:00;;;;;;;18.02;11.60;;;15.80;83.70;;;;;;5052507;28;20556;-71
2022/03/24 08:27:25;;;;;;;22.33;13.18;;;15.90;82.70;;;;;;5052348;28;20037;-70
2022/03/24 08:29:52;;;;;;;16.40;11.60;;;15.70;82.80;;;;;;5050909;28;20028;-73
2022/03/24 08:32:18;;;;;;;19.95;12.27;;;15.60;84.00;;;;;;5052231;28;20041;-69
2022/03/24 08:34:44;;;;;;;19.10;11.90;;;15.90;82.50;;;;;;5051508;28;20049;-71
2022/03/24 08:37:09;;;;;;;16.73;10.55;;;15.90;79.80;;;;;;5051473;28;20041;-70
2022/03/24 08:39:35;;;;;;;13.23;8.98;;;15.90;80.60;;;;;;5051398;28;20063;-70
2022/03/24 08:42:02;;;;;;;17.45;9.80;;;16.30;81.30;;;;;;5052326;28;20033;-69
2022/03/24 08:44:28;;;;;;;28.80;17.10;;;16.30;79.50;;;;;;5051383;28;20053;-70
2022/03/24 08:46:54;;;;;;;34.33;20.85;;;16.20;78.90;;;;;;5051611;28;20349;-70
2022/03/24 08:49:20;;;;;;;19.58;11.25;;;16.10;78.60;;;;;;5051203;28;20140;-70
2022/03/24 08:51:46;;;;;;;20.90;11.98;;;16.20;78.90;;;;;;5051475;28;20032;-71
2022/03/24 08:54:12;;;;;;;19.60;12.18;;;16.30;80.60;;;;;;5051505;28;20041;-72
2022/03/24 08:56:38;;;;;;;24.35;12.10;;;16.30;77.40;;;;;;5051204;28;20068;-71
2022/03/24 08:59:04;;;;;;;20.45;12.82;;;16.00;78.40;;;;;;5050662;28;20129;-72
2022/03/24 09:01:30;;;;;;;22.35;13.07;;;16.20;77.20;;;;;;5051406;28;20033;-72
2022/03/24 09:03:56;;;;;;;18.30;10.45;;;16.30;78.10;;;;;;5049615;28;20056;-72
2022/03/24 09:06:22;;;;;;;17.52;10.00;;;16.30;78.90;;;;;;5023536;28;20033;-72
2022/03/24 09:08:49;;;;;;;16.90;10.15;;;16.30;80.70;;;;;;5031604;28;20037;-72
2022/03/24 09:11:15;;;;;;;18.38;11.18;;;16.30;79.30;;;;;;5033916;28;20382;-71
2022/03/24 09:13:41;;;;;;;21.88;11.60;;;16.40;79.60;;;;;;5033097;28;20513;-72
2022/03/24 09:16:07;;;;;;;19.13;11.82;;;16.80;79.60;;;;;;5033381;28;20073;-72
2022/03/24 09:18:34;;;;;;;18.48;11.82;;;16.40;78.20;;;;;;5033575;28;20052;-72
2022/03/24 09:21:00;;;;;;;17.58;11.05;;;16.60;79.60;;;;;;5032646;28;20120;-71
2022/03/24 09:23:27;;;;;;;21.45;12.10;;;17.00;77.40;;;;;;5031511;28;20136;-72
2022/03/24 09:25:54;;;;;;;19.02;11.13;;;17.10;77.70;;;;;;5032525;28;20038;-72
2022/03/24 09:28:22;;;;;;;21.77;11.10;;;17.10;79.40;;;;;;5035775;28;20152;-72
2022/03/24 09:30:50;;;;;;;25.73;12.40;;;17.30;78.30;;;;;;5033213;28;20079;-72
2022/03/24 09:33:16;;;;;;;24.33;12.85;;;17.00;78.30;;;;;;5033266;28;20049;-72
2022/03/24 09:35:42;;;;;;;20.98;12.30;;;17.20;77.70;;;;;;5033571;28;20117;-72
2022/03/24 09:38:08;;;;;;;21.58;12.10;;;17.20;77.40;;;;;;5033215;28;20068;-72
2022/03/24 09:40:34;;;;;;;22.30;12.70;;;17.40;77.40;;;;;;5033254;28;20044;-73
2022/03/24 09:43:02;;;;;;;20.52;12.15;;;17.20;76.70;;;;;;5033009;28;20045;-72
2022/03/24 09:45:28;;;;;;;24.05;13.32;;;17.30;78.40;;;;;;5032933;28;20050;-74
2022/03/24 09:47:54;;;;;;;17.98;11.98;;;17.30;78.60;;;;;;5032936;28;20091;-73
2022/03/24 09:50:22;;;;;;;22.25;12.18;;;17.50;77.70;;;;;;5032949;28;20073;-72
2022/03/24 09:52:49;;;;;;;22.75;11.80;;;17.40;78.10;;;;;;5033024;28;20049;-72
2022/03/24 09:55:17;;;;;;;21.00;12.60;;;17.30;77.60;;;;;;5032702;28;20091;-72
2022/03/24 09:57:45;;;;;;;18.83;11.65;;;17.60;79.60;;;;;;5030024;28;20050;-72
2022/03/24 10:00:11;;;;;;;25.75;13.48;;;17.70;79.50;;;;;;5013268;28;20120;-72
2022/03/24 10:02:37;;;;;;;25.23;12.85;;;17.50;77.10;;;;;;5031441;28;20529;-72
2022/03/24 10:05:06;;;;;;;22.55;12.32;;;17.60;78.20;;;;;;5027557;28;20052;-72
2022/03/24 10:07:45;;;;;;;25.80;12.80;;;17.70;76.50;;;;;;5026631;28;20520;-75
2022/03/24 10:10:23;;;;;;;22.35;12.60;;;17.60;76.10;;;;;;5032874;28;20037;-72
2022/03/24 10:12:49;;;;;;;22.50;12.90;;;17.70;77.60;;;;;;5023019;28;20049;-72
2022/03/24 10:15:16;;;;;;;19.50;11.50;;;17.70;78.50;;;;;;5031288;28;20531;-73
2022/03/24 10:17:51;;;;;;;21.15;11.18;;;17.90;77.50;;;;;;5030135;28;20597;-71
2022/03/24 10:20:18;;;;;;;19.88;12.00;;;;;;;;;;5033381;28;20046;-75
2022/03/24 10:23:04;;;;;;;20.60;11.50;;;;;;;;;;5034083;28;20073;-71
2022/03/24 10:25:33;;;;;;;24.83;12.48;;;18.50;76.70;;;;;;5034090;28;20045;-72
2022/03/24 10:28:09;;;;;;;16.75;10.48;;;18.20;80.50;;;;;;5033022;28;20040;-72
2022/03/24 10:30:59;;;;;;;17.40;10.98;;;18.60;78.10;;;;;;5030933;28;20050;-73
2022/03/24 10:33:30;;;;;;;25.03;13.23;;;18.00;74.80;;;;;;5027150;28;20045;-72
2022/03/24 10:36:18;;;;;;;23.20;11.88;;;17.40;74.10;;;;;;5034702;28;20776;-73
2022/03/24 10:38:49;;;;;;;20.20;11.80;;;17.90;78.60;;;;;;5035676;28;20187;-72
2022/03/24 10:41:26;;;;;;;24.80;11.73;;;17.80;76.80;;;;;;5034119;28;20038;-72
2022/03/24 10:43:54;;;;;;;22.52;12.00;;;17.70;77.90;;;;;;5034201;28;20049;-72
2022/03/24 10:46:22;;;;;;;19.50;13.00;;;17.70;75.00;;;;;;5035136;28;20075;-72
2022/03/24 10:48:50;;;;;;;25.17;12.68;;;17.90;75.70;;;;;;5035593;28;20412;-72
2022/03/24 10:51:27;;;;;;;27.08;12.68;;;18.50;77.40;;;;;;5036036;28;20456;-72
2022/03/24 10:54:30;;;;;;;19.27;11.82;;;18.20;77.80;;;;;;5035668;28;20041;-72
2022/03/24 10:57:03;;;;;;;22.48;12.40;;;18.50;76.50;;;;;;5035361;28;20040;-71
2022/03/24 10:59:35;;;;;;;23.67;13.32;;;18.50;75.50;;;;;;5034667;28;20086;-72
2022/03/24 11:02:02;;;;;;;22.05;13.43;;;18.40;75.60;;;;;;5034153;28;20191;-72
2022/03/24 11:04:27;;;;;;;24.73;13.32;;;18.30;75.30;;;;;;5033964;28;20049;-72
2022/03/24 11:06:53;;;;;;;25.98;13.60;;;18.20;75.50;;;;;;5034732;28;20048;-72
2022/03/24 11:09:30;;;;;;;33.50;19.58;;;18.10;75.10;;;;;;5033821;28;20048;-73
2022/03/24 11:12:26;;;;;;;24.38;13.98;;;17.90;76.70;;;;;;5033537;28;20033;-72
2022/03/24 11:14:54;;;;;;;24.02;15.23;;;18.30;76.60;;;;;;5033308;28;20125;-72
2022/03/24 11:17:26;;;;;;;28.75;15.85;;;18.10;74.00;;;;;;5033503;28;20404;-72
2022/03/24 11:20:20;;;;;;;27.45;14.27;;;18.20;80.70;;;;;;5033209;28;20038;-72
2022/03/24 11:23:01;;;;;;;27.35;15.85;;;18.70;76.20;;;;;;5032799;28;20045;-72
2022/03/24 11:25:29;;;;;;;49.95;25.13;;;18.90;77.00;;;;;;5035962;28;20041;-72
2022/03/24 11:27:56;;;;;;;46.22;22.58;;;18.20;74.50;;;;;;5035330;28;20044;-72
2022/03/24 11:30:24;;;;;;;26.38;17.27;;;18.10;76.20;;;;;;5016700;28;20056;-72
2022/03/24 11:32:52;;;;;;;30.90;16.35;;;18.10;75.50;;;;;;5033368;28;20132;-72
2022/03/24 11:35:20;;;;;;;25.13;15.40;;;17.80;75.00;;;;;;5033122;28;20428;-72
2022/03/24 11:37:48;;;;;;;30.42;15.50;;;17.90;75.70;;;;;;5033357;28;20131;-72
2022/03/24 11:40:19;;;;;;;25.27;14.85;;;18.00;76.10;;;;;;5033343;28;20451;-72
2022/03/24 11:42:50;;;;;;;29.40;18.30;;;18.10;76.80;;;;;;5032563;28;20049;-72
2022/03/24 11:45:16;;;;;;;;;;;18.10;75.00;;;;;;5033393;28;20041;-72
2022/03/24 11:48:00;;;;;;;25.70;15.13;;;18.00;76.10;;;;;;5031837;28;19920;-72
2022/03/24 11:50:46;;;;;;;30.00;15.45;;;17.80;77.80;;;;;;5032793;28;20043;-72
2022/03/24 11:53:32;;;;;;;25.23;15.43;;;18.00;77.20;;;;;;5033074;28;20073;-73
2022/03/24 11:56:01;;;;;;;30.30;15.27;;;17.80;77.10;;;;;;5034514;28;20084;-72
2022/03/24 11:58:41;;;;;;;31.00;15.75;;;18.30;80.20;;;;;;5036230;28;20515;-72
2022/03/24 12:01:32;;;;;;;26.83;15.88;;;17.70;76.80;;;;;;5033640;28;20053;-72
2022/03/24 12:04:08;;;;;;;26.08;14.77;;;17.60;77.90;;;;;;5034117;28;20434;-72
2022/03/24 12:06:40;;;;;;;26.23;14.93;;;17.60;76.30;;;;;;5033362;28;20041;-72
2022/03/24 12:09:08;;;;;;;27.30;15.55;;;17.50;77.40;;;;;;5032458;28;20033;-71
2022/03/24 12:11:33;;;;;;;29.00;16.58;;;17.50;82.60;;;;;;5034658;28;20528;-72
2022/03/24 12:14:04;;;;;;;34.35;16.75;;;17.50;78.80;;;;;;5033313;28;20068;-72
2022/03/24 12:16:30;;;;;;;;;;;17.60;79.90;;;;;;5032975;28;20072;-71
2022/03/24 12:18:56;;;;;;;24.67;16.42;;;17.50;76.00;;;;;;5033959;28;19936;-72
2022/03/24 12:21:27;;;;;;;28.02;15.73;;;17.30;73.50;;;;;;5032596;28;20120;-72
2022/03/24 12:24:02;;;;;;;30.33;16.20;;;17.40;77.00;;;;;;5032021;28;20147;-71
2022/03/24 12:26:30;;;;;;;28.58;14.80;;;17.60;75.10;;;;;;5032155;28;20033;-73
2022/03/24 12:29:27;;;;;;;25.13;13.77;;;17.60;76.30;;;;;;5032230;28;20049;-72
2022/03/24 12:32:09;;;;;;;24.88;14.65;;;18.00;75.40;;;;;;5016382;28;20041;-72
2022/03/24 12:34:48;;;;;;;21.95;14.43;;;17.70;74.40;;;;;;5012392;28;20042;-73
2022/03/24 12:37:25;;;;;;;24.45;14.20;;;17.40;75.50;;;;;;5014136;28;20037;-72
2022/03/24 12:40:11;;;;;;;25.80;16.30;;;17.60;75.50;;;;;;5014433;28;20073;-72
2022/03/24 12:42:51;;;;;;;27.23;15.95;;;17.50;73.10;;;;;;5014219;28;20064;-71
2022/03/24 12:45:26;;;;;;;28.65;16.10;;;17.40;75.10;;;;;;5014161;28;20051;-71